• Join FlightAware (Why Join?)
  • Login
  • US Flag 
08:41AM EDT


 

Airport Tracker/Info


-or-


 

Live Flight TrackerFlight Track Log ✈ N98XL ✈ 27-Apr-2013 ✈ MMSD / SJD - KLRD

Flight Track Log - Related Links

Times and Time Zones

All times are in EDT time to prevent confusion due to time zone crossing. See the N98XL flight status page for this flight to view local times or setup timezone preferences in your user account.

Time Position Orientation Groundspeed Altitude Reporting Facility
EDT Latitude Longitude Course Direction KTS MPH feet Rate Location/Type
07:08PM 27.2706 -100.2472 75° East 489 563 33,000  Level Houston Center
07:09PM 27.3056 -100.1047 75° East 480 552 29,900 -3,180 Descending Houston Center
07:10PM 27.3417 -99.9606 74° East 479 551 26,500 -3,360 Descending Houston Center
07:11PM 27.3753 -99.8211 75° East 466 536 23,100 -3,360 Descending Houston Center
07:12PM 27.4089 -99.6894 74° East 441 507 19,700 -3,360 Descending Houston Center
07:13PM 27.4411 -99.5694 73° East 412 474 16,300 -3,480 Descending Houston Center
07:14PM 27.5206 -99.4936 40° Northeast 381 438 12,600 -3,840 Descending Houston Center
07:15PM 27.6306 -99.5192 348° North 346 398 8,500 -3,540 Descending Houston Center
07:16PM 27.7036 -99.5467 342° North 309 356 5,400 -2,460 Descending Houston Center
07:17PM 27.7636 -99.5714 340° North 263 303 3,500 -1,200 Descending Houston Center
07:18PM 27.8069 -99.5469 27° Northeast 221 254 3,000 -300 Descending Houston Center
07:19PM 27.8158 -99.4883 80° East 200 230 3,000  Level Houston Center
07:20PM 27.7750 -99.4589 147° Southeast 186 214 3,000 -420 Level Houston Center
07:21PM 27.7225 -99.4542 175° South 187 215 2,200 -300 Descending Houston Center
07:22PM 27.6750 -99.4569 183° South 180 207 2,400 -240 Climbing Houston Center
07:23PM 27.6267 -99.4594 183° South 176 203 1,800 -720 Descending Houston Center
07:24PM 27.5744 -99.4614 182° South 167 192 1,000 -660 Descending Houston Center
07:25PM 27.5439 -99.4633 183° South 139 160 500 -540 Descending Houston Center
07:27PM 27.5442 -99.4616 154° Southeast  Level Estimated
07:34PM 27.5442 -99.4616 154° Southeast  Level Estimated
07:35PM 27.5442 -99.4616 154° Southeast  Level Estimated
07:36PM 27.5442 -99.4616 154° Southeast  Level Estimated
07:37PM 27.5442 -99.4616 154° Southeast  Level Estimated